Pilot Vessel Akarana — ZMT2938 — position and weather

sailwx.info

Track history (hours):
 
Tides and Currents Weather Stations Pressure Air Temp Water Temp Dewpoint Dewpoint Depression Visibility Wind Speed Wind Dir Waves Ship Positions

Pilot Vessel Akarana

Last reported at 2014-Nov-26 08:19 UTC. Time now 2014-Nov-26 15:09 UTC.
Position S 36°51' E 174°47'.

Length 15 m; draft 1.6 m.

Type: Pilot. MMSI: 512000344.

Date/timePositionNaut miles runAvg speedWind from/ knotsBaromVisibWave heightAir tempDewpointWater temp
2014-Nov-26 08:19S 36°51' E 174°47'0 0.1
2014-Nov-26 07:33S 36°51' E 174°47'3 1.7
2014-Nov-26 05:34S 36°48' E 174°49'3 3.4
2014-Nov-26 04:33S 36°51' E 174°47'0 0.0
2014-Nov-26 03:33S 36°51' E 174°47'0 0.0
2014-Nov-26 02:12S 36°51' E 174°47'0 0.0
2014-Nov-26 01:33S 36°51' E 174°47'0 0.0
2014-Nov-25 23:07S 36°51' E 174°47'0 0.6
2014-Nov-25 22:32S 36°50' E 174°47'0 0.3
2014-Nov-25 21:30S 36°51' E 174°47'1 1.0
2014-Nov-25 20:33S 36°50' E 174°48'1 0.1
2014-Nov-25 13:17S 36°51' E 174°47'4 5.3
2014-Nov-25 12:34S 36°47' E 174°49'4 3.8
2014-Nov-25 11:33S 36°51' E 174°47'3 2.7
2014-Nov-25 10:33S 36°49' E 174°49'3 2.0
2014-Nov-25 09:12S 36°51' E 174°47'0 0.0
2014-Nov-25 08:29S 36°51' E 174°47'0 0.0
2014-Nov-25 07:24S 36°51' E 174°47'4 4.8
2014-Nov-25 06:33S 36°47' E 174°49'4 4.0
2014-Nov-25 05:33S 36°51' E 174°47'0 0.0
2014-Nov-25 02:29S 36°51' E 174°47'0 0.0
2014-Nov-25 01:28S 36°51' E 174°47'0 0.0
2014-Nov-24 21:30S 36°51' E 174°47'0 0.0
2014-Nov-24 20:11S 36°51' E 174°47'0 0.0
2014-Nov-24 19:32S 36°51' E 174°47'0 0.0
2014-Nov-24 18:31S 36°51' E 174°47'4 0.3
2014-Nov-24 05:16S 36°47' E 174°48'2 0.3
2014-Nov-23 23:33S 36°46' E 174°49'0 0.1
2014-Nov-23 18:31S 36°45' E 174°49'1 0.2
2014-Nov-23 16:06S 36°46' E 174°50'0 0.0
2014-Nov-22 21:33S 36°46' E 174°49'5 4.4
2014-Nov-22 20:24S 36°51' E 174°48'1 1.7
2014-Nov-22 19:33S 36°50' E 174°47'5 5.3
2014-Nov-22 18:33S 36°46' E 174°50'5 5.4
2014-Nov-22 17:33S 36°51' E 174°47'4 4.4
2014-Nov-22 16:34S 36°47' E 174°49'1 0.1
2014-Nov-22 11:34S 36°46' E 174°49'5 4.5
2014-Nov-22 10:33S 36°51' E 174°47'0 0.2
2014-Nov-22 09:33S 36°51' E 174°47'4 3.9
2014-Nov-22 08:33S 36°47' E 174°49'4 4.0
2014-Nov-22 07:33S 36°51' E 174°47'2 2.5
2014-Nov-22 06:34S 36°49' E 174°49'2 2.1
2014-Nov-22 05:24S 36°51' E 174°47'4 4.8
2014-Nov-22 04:34S 36°47' E 174°49'4 0.4
2014-Nov-21 18:14S 36°51' E 174°47'7 9.7
2014-Nov-21 17:33S 36°44' E 174°50'4 4.2
2014-Nov-21 16:33S 36°49' E 174°49'2 2.5
2014-Nov-21 15:33S 36°51' E 174°47'2 0.4
2014-Nov-21 11:17S 36°50' E 174°49'2 2.6
2014-Nov-21 10:33S 36°48' E 174°49'2 1.6
2014-Nov-21 09:33S 36°46' E 174°49'5 0.9
2014-Nov-21 04:24S 36°51' E 174°47'0 0.0
2014-Nov-20 20:32S 36°51' E 174°47'0 0.3
2014-Nov-20 19:32S 36°50' E 174°47'0 0.3
2014-Nov-20 18:27S 36°51' E 174°47'1 1.4
2014-Nov-20 17:33S 36°51' E 174°48'1 1.2
2014-Nov-20 16:33S 36°51' E 174°47'0 0.0
2014-Nov-20 15:18S 36°51' E 174°47'0 0.3
2014-Nov-20 14:31S 36°50' E 174°47'0 0.1
2014-Nov-20 10:24S 36°51' E 174°47'2 2.5
2014-Nov-20 09:33S 36°49' E 174°49'2 0.3
2014-Nov-20 03:17S 36°51' E 174°47'7 9.9
2014-Nov-20 02:34S 36°44' E 174°50'7 6.6
2014-Nov-20 01:29S 36°51' E 174°47'2 2.0
2014-Nov-20 00:33S 36°50' E 174°49'2 1.5
2014-Nov-19 23:21S 36°51' E 174°47'0 0.1
2014-Nov-19 22:19S 36°51' E 174°47'0 0.0
2014-Nov-19 08:25S 36°51' E 174°47'3 3.2
2014-Nov-19 07:33S 36°48' E 174°48'4 4.5
2014-Nov-19 06:33S 36°44' E 174°51'7 1.3
2014-Nov-19 01:28S 36°51' E 174°48'1 0.3
2014-Nov-18 21:14S 36°51' E 174°47'4 5.3
2014-Nov-18 20:33S 36°47' E 174°48'2 2.1
2014-Nov-18 19:31S 36°45' E 174°50'6 3.0
2014-Nov-18 17:33S 36°51' E 174°47'2 1.9
2014-Nov-18 16:34S 36°50' E 174°49'2 1.8
2014-Nov-18 15:32S 36°51' E 174°47'4 3.7
2014-Nov-18 14:34S 36°48' E 174°49'4 3.5
2014-Nov-18 13:33S 36°51' E 174°47'0 0.0
2014-Nov-18 10:07S 36°51' E 174°47'713.2
2014-Nov-18 09:33S 36°44' E 174°51'2 2.3
2014-Nov-18 08:34S 36°46' E 174°49'5 4.9
2014-Nov-18 07:32S 36°51' E 174°47'0 0.0
2014-Nov-18 06:27S 36°51' E 174°47'0 0.0
2014-Nov-18 05:33S 36°51' E 174°47'0 0.0
2014-Nov-18 03:19S 36°51' E 174°47'7 8.7
2014-Nov-18 02:33S 36°45' E 174°51'7 6.6
2014-Nov-18 01:33S 36°51' E 174°47'6 5.6
2014-Nov-18 00:33S 36°46' E 174°50'6 4.4
2014-Nov-17 23:17S 36°51' E 174°47'0 0.0
2014-Nov-17 20:33S 36°51' E 174°47'2 0.6
2014-Nov-17 16:34S 36°49' E 174°49'1 0.7
2014-Nov-17 15:31S 36°50' E 174°49'2 2.0
2014-Nov-17 14:34S 36°48' E 174°48'3 0.9
2014-Nov-17 11:33S 36°45' E 174°50'6 5.6
2014-Nov-17 10:33S 36°51' E 174°47'1 0.1
2014-Nov-17 01:33S 36°51' E 174°48'1 1.0
2014-Nov-17 00:34S 36°50' E 174°49'3 0.3
2014-Nov-16 15:33S 36°47' E 174°49'4 4.1
2014-Nov-16 14:33S 36°51' E 174°47'4 3.9
2014-Nov-16 13:34S 36°47' E 174°49'3 2.9
2014-Nov-16 12:33S 36°45' E 174°50'7 6.2
2014-Nov-16 11:28S 36°51' E 174°47'0 0.0
2014-Nov-16 10:32S 36°51' E 174°47'3 3.0
2014-Nov-16 09:33S 36°48' E 174°49'  
Track history (hours):
 
Tides and Currents Weather Stations Pressure Air Temp Water Temp Dewpoint Dewpoint Depression Visibility Wind Speed Wind Dir Waves Ship Positions

Pilot Vessel Akarana

Last reported at 2014-Nov-26 08:19 UTC. Time now 2014-Nov-26 15:09 UTC.
Position S 36°51' E 174°47'.

Length 15 m; draft 1.6 m.

Type: Pilot. MMSI: 512000344.

Date/timePositionNaut miles runAvg speedWind from/ knotsBaromVisibWave heightAir tempDewpointWater temp
2014-Nov-26 08:19S 36°51' E 174°47'0 0.1
2014-Nov-26 07:33S 36°51' E 174°47'3 1.7
2014-Nov-26 05:34S 36°48' E 174°49'3 3.4
2014-Nov-26 04:33S 36°51' E 174°47'0 0.0
2014-Nov-26 03:33S 36°51' E 174°47'0 0.0
2014-Nov-26 02:12S 36°51' E 174°47'0 0.0
2014-Nov-26 01:33S 36°51' E 174°47'0 0.0
2014-Nov-25 23:07S 36°51' E 174°47'0 0.6
2014-Nov-25 22:32S 36°50' E 174°47'0 0.3
2014-Nov-25 21:30S 36°51' E 174°47'1 1.0
2014-Nov-25 20:33S 36°50' E 174°48'1 0.1
2014-Nov-25 13:17S 36°51' E 174°47'4 5.3
2014-Nov-25 12:34S 36°47' E 174°49'4 3.8
2014-Nov-25 11:33S 36°51' E 174°47'3 2.7
2014-Nov-25 10:33S 36°49' E 174°49'3 2.0
2014-Nov-25 09:12S 36°51' E 174°47'0 0.0
2014-Nov-25 08:29S 36°51' E 174°47'0 0.0
2014-Nov-25 07:24S 36°51' E 174°47'4 4.8
2014-Nov-25 06:33S 36°47' E 174°49'4 4.0
2014-Nov-25 05:33S 36°51' E 174°47'0 0.0
2014-Nov-25 02:29S 36°51' E 174°47'0 0.0
2014-Nov-25 01:28S 36°51' E 174°47'0 0.0
2014-Nov-24 21:30S 36°51' E 174°47'0 0.0
2014-Nov-24 20:11S 36°51' E 174°47'0 0.0
2014-Nov-24 19:32S 36°51' E 174°47'0 0.0
2014-Nov-24 18:31S 36°51' E 174°47'4 0.3
2014-Nov-24 05:16S 36°47' E 174°48'2 0.3
2014-Nov-23 23:33S 36°46' E 174°49'0 0.1
2014-Nov-23 18:31S 36°45' E 174°49'1 0.2
2014-Nov-23 16:06S 36°46' E 174°50'0 0.0
2014-Nov-22 21:33S 36°46' E 174°49'5 4.4
2014-Nov-22 20:24S 36°51' E 174°48'1 1.7
2014-Nov-22 19:33S 36°50' E 174°47'5 5.3
2014-Nov-22 18:33S 36°46' E 174°50'5 5.4
2014-Nov-22 17:33S 36°51' E 174°47'4 4.4
2014-Nov-22 16:34S 36°47' E 174°49'1 0.1
2014-Nov-22 11:34S 36°46' E 174°49'5 4.5
2014-Nov-22 10:33S 36°51' E 174°47'0 0.2
2014-Nov-22 09:33S 36°51' E 174°47'4 3.9
2014-Nov-22 08:33S 36°47' E 174°49'4 4.0
2014-Nov-22 07:33S 36°51' E 174°47'2 2.5
2014-Nov-22 06:34S 36°49' E 174°49'2 2.1
2014-Nov-22 05:24S 36°51' E 174°47'4 4.8
2014-Nov-22 04:34S 36°47' E 174°49'4 0.4
2014-Nov-21 18:14S 36°51' E 174°47'7 9.7
2014-Nov-21 17:33S 36°44' E 174°50'4 4.2
2014-Nov-21 16:33S 36°49' E 174°49'2 2.5
2014-Nov-21 15:33S 36°51' E 174°47'2 0.4
2014-Nov-21 11:17S 36°50' E 174°49'2 2.6
2014-Nov-21 10:33S 36°48' E 174°49'2 1.6
2014-Nov-21 09:33S 36°46' E 174°49'5 0.9
2014-Nov-21 04:24S 36°51' E 174°47'0 0.0
2014-Nov-20 20:32S 36°51' E 174°47'0 0.3
2014-Nov-20 19:32S 36°50' E 174°47'0 0.3
2014-Nov-20 18:27S 36°51' E 174°47'1 1.4
2014-Nov-20 17:33S 36°51' E 174°48'1 1.2
2014-Nov-20 16:33S 36°51' E 174°47'0 0.0
2014-Nov-20 15:18S 36°51' E 174°47'0 0.3
2014-Nov-20 14:31S 36°50' E 174°47'0 0.1
2014-Nov-20 10:24S 36°51' E 174°47'2 2.5
2014-Nov-20 09:33S 36°49' E 174°49'2 0.3
2014-Nov-20 03:17S 36°51' E 174°47'7 9.9
2014-Nov-20 02:34S 36°44' E 174°50'7 6.6
2014-Nov-20 01:29S 36°51' E 174°47'2 2.0
2014-Nov-20 00:33S 36°50' E 174°49'2 1.5
2014-Nov-19 23:21S 36°51' E 174°47'0 0.1
2014-Nov-19 22:19S 36°51' E 174°47'0 0.0
2014-Nov-19 08:25S 36°51' E 174°47'3 3.2
2014-Nov-19 07:33S 36°48' E 174°48'4 4.5
2014-Nov-19 06:33S 36°44' E 174°51'7 1.3
2014-Nov-19 01:28S 36°51' E 174°48'1 0.3
2014-Nov-18 21:14S 36°51' E 174°47'4 5.3
2014-Nov-18 20:33S 36°47' E 174°48'2 2.1
2014-Nov-18 19:31S 36°45' E 174°50'6 3.0
2014-Nov-18 17:33S 36°51' E 174°47'2 1.9
2014-Nov-18 16:34S 36°50' E 174°49'2 1.8
2014-Nov-18 15:32S 36°51' E 174°47'4 3.7
2014-Nov-18 14:34S 36°48' E 174°49'4 3.5
2014-Nov-18 13:33S 36°51' E 174°47'0 0.0
2014-Nov-18 10:07S 36°51' E 174°47'713.2
2014-Nov-18 09:33S 36°44' E 174°51'2 2.3
2014-Nov-18 08:34S 36°46' E 174°49'5 4.9
2014-Nov-18 07:32S 36°51' E 174°47'0 0.0
2014-Nov-18 06:27S 36°51' E 174°47'0 0.0
2014-Nov-18 05:33S 36°51' E 174°47'0 0.0
2014-Nov-18 03:19S 36°51' E 174°47'7 8.7
2014-Nov-18 02:33S 36°45' E 174°51'7 6.6
2014-Nov-18 01:33S 36°51' E 174°47'6 5.6
2014-Nov-18 00:33S 36°46' E 174°50'6 4.4
2014-Nov-17 23:17S 36°51' E 174°47'0 0.0
2014-Nov-17 20:33S 36°51' E 174°47'2 0.6
2014-Nov-17 16:34S 36°49' E 174°49'1 0.7
2014-Nov-17 15:31S 36°50' E 174°49'2 2.0
2014-Nov-17 14:34S 36°48' E 174°48'3 0.9
2014-Nov-17 11:33S 36°45' E 174°50'6 5.6
2014-Nov-17 10:33S 36°51' E 174°47'1 0.1
2014-Nov-17 01:33S 36°51' E 174°48'1 1.0
2014-Nov-17 00:34S 36°50' E 174°49'3 0.3
2014-Nov-16 15:33S 36°47' E 174°49'4 4.1
2014-Nov-16 14:33S 36°51' E 174°47'4 3.9
2014-Nov-16 13:34S 36°47' E 174°49'3 2.9
2014-Nov-16 12:33S 36°45' E 174°50'7 6.2
2014-Nov-16 11:28S 36°51' E 174°47'0 0.0
2014-Nov-16 10:32S 36°51' E 174°47'3 3.0
2014-Nov-16 09:33S 36°48' E 174°49'  

Dump ship's entire track history